sensor_id;sensor_type;location;lat;lon;timestamp;P1;durP1;ratioP1;P2;durP2;ratioP2
703;SDS011;335;48.694;9.120;2023-01-15T00:01:27;0.60;;;0.30;;
703;SDS011;335;48.694;9.120;2023-01-15T00:03:54;0.60;;;0.50;;
703;SDS011;335;48.694;9.120;2023-01-15T00:06:20;0.40;;;0.40;;
703;SDS011;335;48.694;9.120;2023-01-15T00:08:46;0.43;;;0.43;;
703;SDS011;335;48.694;9.120;2023-01-15T00:11:12;0.40;;;0.30;;
703;SDS011;335;48.694;9.120;2023-01-15T00:13:37;0.60;;;0.40;;
703;SDS011;335;48.694;9.120;2023-01-15T00:16:11;0.93;;;0.60;;
703;SDS011;335;48.694;9.120;2023-01-15T00:18:38;1.00;;;0.40;;
703;SDS011;335;48.694;9.120;2023-01-15T00:21:05;0.60;;;0.50;;
703;SDS011;335;48.694;9.120;2023-01-15T00:23:32;0.50;;;0.50;;
703;SDS011;335;48.694;9.120;2023-01-15T00:26:16;1.43;;;0.70;;
703;SDS011;335;48.694;9.120;2023-01-15T00:29:01;0.90;;;0.40;;
703;SDS011;335;48.694;9.120;2023-01-15T00:31:26;1.73;;;0.33;;
703;SDS011;335;48.694;9.120;2023-01-15T00:33:52;0.50;;;0.20;;
703;SDS011;335;48.694;9.120;2023-01-15T00:36:18;0.40;;;0.20;;
703;SDS011;335;48.694;9.120;2023-01-15T00:38:43;0.70;;;0.40;;
703;SDS011;335;48.694;9.120;2023-01-15T00:41:08;1.17;;;0.40;;
703;SDS011;335;48.694;9.120;2023-01-15T00:43:34;0.50;;;0.40;;
703;SDS011;335;48.694;9.120;2023-01-15T00:45:59;0.40;;;0.30;;
703;SDS011;335;48.694;9.120;2023-01-15T00:48:24;0.43;;;0.40;;
703;SDS011;335;48.694;9.120;2023-01-15T00:50:50;0.50;;;0.27;;
703;SDS011;335;48.694;9.120;2023-01-15T00:53:15;1.10;;;0.27;;
703;SDS011;335;48.694;9.120;2023-01-15T00:55:41;0.40;;;0.40;;
703;SDS011;335;48.694;9.120;2023-01-15T00:58:06;1.23;;;0.47;;
703;SDS011;335;48.694;9.120;2023-01-15T01:00:31;0.40;;;0.30;;
703;SDS011;335;48.694;9.120;2023-01-15T01:02:57;0.30;;;0.20;;
703;SDS011;335;48.694;9.120;2023-01-15T01:05:22;0.60;;;0.50;;
703;SDS011;335;48.694;9.120;2023-01-15T01:07:47;0.50;;;0.30;;
703;SDS011;335;48.694;9.120;2023-01-15T01:10:13;0.57;;;0.30;;
703;SDS011;335;48.694;9.120;2023-01-15T01:12:39;1.10;;;0.40;;
703;SDS011;335;48.694;9.120;2023-01-15T01:15:05;1.53;;;0.30;;
703;SDS011;335;48.694;9.120;2023-01-15T01:17:30;0.50;;;0.50;;
703;SDS011;335;48.694;9.120;2023-01-15T01:19:56;0.40;;;0.40;;
703;SDS011;335;48.694;9.120;2023-01-15T01:22:21;0.67;;;0.30;;
703;SDS011;335;48.694;9.120;2023-01-15T01:24:46;1.57;;;0.40;;
703;SDS011;335;48.694;9.120;2023-01-15T01:27:12;0.60;;;0.40;;
703;SDS011;335;48.694;9.120;2023-01-15T01:29:37;0.73;;;0.30;;
703;SDS011;335;48.694;9.120;2023-01-15T01:32:02;0.40;;;0.20;;
703;SDS011;335;48.694;9.120;2023-01-15T01:34:28;0.40;;;0.30;;
703;SDS011;335;48.694;9.120;2023-01-15T01:36:53;0.43;;;0.37;;
703;SDS011;335;48.694;9.120;2023-01-15T01:39:18;0.40;;;0.20;;
703;SDS011;335;48.694;9.120;2023-01-15T01:41:44;0.50;;;0.40;;
703;SDS011;335;48.694;9.120;2023-01-15T01:47:01;0.90;;;0.30;;
703;SDS011;335;48.694;9.120;2023-01-15T01:49:29;0.93;;;0.30;;
703;SDS011;335;48.694;9.120;2023-01-15T01:52:01;0.80;;;0.50;;
703;SDS011;335;48.694;9.120;2023-01-15T01:54:29;1.10;;;0.60;;
703;SDS011;335;48.694;9.120;2023-01-15T01:56:55;0.43;;;0.30;;
703;SDS011;335;48.694;9.120;2023-01-15T01:59:21;0.50;;;0.40;;
703;SDS011;335;48.694;9.120;2023-01-15T02:01:48;0.40;;;0.30;;
703;SDS011;335;48.694;9.120;2023-01-15T02:04:14;0.40;;;0.20;;
703;SDS011;335;48.694;9.120;2023-01-15T02:06:40;0.50;;;0.20;;
703;SDS011;335;48.694;9.120;2023-01-15T02:09:06;0.40;;;0.33;;
703;SDS011;335;48.694;9.120;2023-01-15T02:11:32;0.40;;;0.40;;
703;SDS011;335;48.694;9.120;2023-01-15T02:13:59;0.40;;;0.30;;
703;SDS011;335;48.694;9.120;2023-01-15T02:17:00;0.40;;;0.20;;
703;SDS011;335;48.694;9.120;2023-01-15T02:19:39;0.87;;;0.20;;
703;SDS011;335;48.694;9.120;2023-01-15T02:27:30;0.40;;;0.20;;
703;SDS011;335;48.694;9.120;2023-01-15T02:32:32;0.37;;;0.20;;
703;SDS011;335;48.694;9.120;2023-01-15T02:35:01;2.23;;;0.40;;
703;SDS011;335;48.694;9.120;2023-01-15T02:37:31;0.90;;;0.30;;
703;SDS011;335;48.694;9.120;2023-01-15T02:39:58;0.40;;;0.30;;
703;SDS011;335;48.694;9.120;2023-01-15T02:42:25;0.40;;;0.20;;
703;SDS011;335;48.694;9.120;2023-01-15T02:44:52;0.50;;;0.20;;
703;SDS011;335;48.694;9.120;2023-01-15T02:47:20;0.50;;;0.30;;
703;SDS011;335;48.694;9.120;2023-01-15T02:49:48;0.40;;;0.30;;
703;SDS011;335;48.694;9.120;2023-01-15T02:52:19;0.40;;;0.20;;
703;SDS011;335;48.694;9.120;2023-01-15T02:54:52;0.40;;;0.30;;
703;SDS011;335;48.694;9.120;2023-01-15T02:57:24;1.10;;;0.40;;
703;SDS011;335;48.694;9.120;2023-01-15T02:59:52;0.40;;;0.30;;
703;SDS011;335;48.694;9.120;2023-01-15T03:02:19;0.40;;;0.20;;
703;SDS011;335;48.694;9.120;2023-01-15T03:04:55;0.40;;;0.30;;
703;SDS011;335;48.694;9.120;2023-01-15T03:07:42;0.30;;;0.20;;
703;SDS011;335;48.694;9.120;2023-01-15T03:10:11;0.50;;;0.20;;
703;SDS011;335;48.694;9.120;2023-01-15T03:15:22;0.50;;;0.40;;
703;SDS011;335;48.694;9.120;2023-01-15T03:18:08;0.40;;;0.30;;
703;SDS011;335;48.694;9.120;2023-01-15T03:20:35;0.60;;;0.20;;
703;SDS011;335;48.694;9.120;2023-01-15T03:23:05;0.40;;;0.20;;
703;SDS011;335;48.694;9.120;2023-01-15T03:25:34;1.03;;;0.30;;
703;SDS011;335;48.694;9.120;2023-01-15T03:28:02;0.67;;;0.20;;
703;SDS011;335;48.694;9.120;2023-01-15T03:30:28;0.97;;;0.20;;
703;SDS011;335;48.694;9.120;2023-01-15T03:32:53;0.40;;;0.20;;
703;SDS011;335;48.694;9.120;2023-01-15T03:38:08;0.40;;;0.20;;
703;SDS011;335;48.694;9.120;2023-01-15T03:40:35;0.30;;;0.20;;
703;SDS011;335;48.694;9.120;2023-01-15T03:43:04;0.73;;;0.20;;
703;SDS011;335;48.694;9.120;2023-01-15T03:45:50;0.47;;;0.20;;
703;SDS011;335;48.694;9.120;2023-01-15T03:48:50;0.40;;;0.20;;
703;SDS011;335;48.694;9.120;2023-01-15T03:51:13;0.50;;;0.20;;
703;SDS011;335;48.694;9.120;2023-01-15T03:53:49;0.83;;;0.20;;
703;SDS011;335;48.694;9.120;2023-01-15T03:56:21;0.50;;;0.20;;
703;SDS011;335;48.694;9.120;2023-01-15T03:58:55;0.60;;;0.20;;
703;SDS011;335;48.694;9.120;2023-01-15T04:01:42;0.50;;;0.20;;
703;SDS011;335;48.694;9.120;2023-01-15T04:04:07;0.50;;;0.20;;
703;SDS011;335;48.694;9.120;2023-01-15T04:06:34;0.30;;;0.20;;
703;SDS011;335;48.694;9.120;2023-01-15T04:09:00;0.40;;;0.30;;
703;SDS011;335;48.694;9.120;2023-01-15T04:11:28;1.13;;;0.23;;
703;SDS011;335;48.694;9.120;2023-01-15T04:13:53;0.30;;;0.10;;
703;SDS011;335;48.694;9.120;2023-01-15T04:16:22;1.70;;;0.20;;
703;SDS011;335;48.694;9.120;2023-01-15T04:18:50;0.87;;;0.10;;
703;SDS011;335;48.694;9.120;2023-01-15T04:21:16;0.40;;;0.20;;
703;SDS011;335;48.694;9.120;2023-01-15T04:23:41;0.43;;;0.20;;
703;SDS011;335;48.694;9.120;2023-01-15T04:26:06;0.50;;;0.20;;
703;SDS011;335;48.694;9.120;2023-01-15T04:28:32;0.37;;;0.17;;
703;SDS011;335;48.694;9.120;2023-01-15T04:30:57;0.57;;;0.37;;
703;SDS011;335;48.694;9.120;2023-01-15T04:33:24;0.30;;;0.20;;
703;SDS011;335;48.694;9.120;2023-01-15T04:35:49;2.00;;;0.23;;
703;SDS011;335;48.694;9.120;2023-01-15T04:38:14;0.30;;;0.10;;
703;SDS011;335;48.694;9.120;2023-01-15T04:40:41;1.07;;;0.20;;
703;SDS011;335;48.694;9.120;2023-01-15T04:43:25;1.57;;;0.23;;
703;SDS011;335;48.694;9.120;2023-01-15T04:46:09;0.70;;;0.20;;
703;SDS011;335;48.694;9.120;2023-01-15T04:48:35;0.30;;;0.13;;
703;SDS011;335;48.694;9.120;2023-01-15T04:51:03;0.40;;;0.20;;
703;SDS011;335;48.694;9.120;2023-01-15T04:53:28;0.30;;;0.10;;
703;SDS011;335;48.694;9.120;2023-01-15T04:55:58;0.33;;;0.20;;
703;SDS011;335;48.694;9.120;2023-01-15T04:58:27;0.50;;;0.20;;
703;SDS011;335;48.694;9.120;2023-01-15T05:00:53;0.30;;;0.10;;
703;SDS011;335;48.694;9.120;2023-01-15T05:03:18;0.40;;;0.20;;
703;SDS011;335;48.694;9.120;2023-01-15T05:05:43;0.30;;;0.17;;
703;SDS011;335;48.694;9.120;2023-01-15T05:08:09;0.30;;;0.20;;
703;SDS011;335;48.694;9.120;2023-01-15T05:10:34;0.40;;;0.20;;
703;SDS011;335;48.694;9.120;2023-01-15T05:12:59;0.30;;;0.20;;
703;SDS011;335;48.694;9.120;2023-01-15T05:15:24;0.60;;;0.30;;
703;SDS011;335;48.694;9.120;2023-01-15T05:17:50;0.30;;;0.20;;
703;SDS011;335;48.694;9.120;2023-01-15T05:20:15;0.40;;;0.23;;
703;SDS011;335;48.694;9.120;2023-01-15T05:22:41;0.40;;;0.20;;
703;SDS011;335;48.694;9.120;2023-01-15T05:25:06;0.40;;;0.20;;
703;SDS011;335;48.694;9.120;2023-01-15T05:27:31;0.80;;;0.20;;
703;SDS011;335;48.694;9.120;2023-01-15T05:29:57;0.60;;;0.20;;
703;SDS011;335;48.694;9.120;2023-01-15T05:32:22;0.30;;;0.20;;
703;SDS011;335;48.694;9.120;2023-01-15T05:34:47;0.40;;;0.23;;
703;SDS011;335;48.694;9.120;2023-01-15T05:37:13;0.60;;;0.10;;
703;SDS011;335;48.694;9.120;2023-01-15T05:39:38;0.30;;;0.10;;
703;SDS011;335;48.694;9.120;2023-01-15T05:42:03;0.40;;;0.10;;
703;SDS011;335;48.694;9.120;2023-01-15T05:44:29;0.30;;;0.20;;
703;SDS011;335;48.694;9.120;2023-01-15T05:46:55;0.30;;;0.10;;
703;SDS011;335;48.694;9.120;2023-01-15T05:49:24;1.10;;;0.20;;
703;SDS011;335;48.694;9.120;2023-01-15T05:51:51;0.80;;;0.17;;
703;SDS011;335;48.694;9.120;2023-01-15T05:54:18;1.03;;;0.10;;
703;SDS011;335;48.694;9.120;2023-01-15T05:56:45;0.40;;;0.20;;
703;SDS011;335;48.694;9.120;2023-01-15T05:59:11;0.30;;;0.10;;
703;SDS011;335;48.694;9.120;2023-01-15T06:01:37;0.30;;;0.10;;
703;SDS011;335;48.694;9.120;2023-01-15T06:04:03;1.77;;;0.30;;
703;SDS011;335;48.694;9.120;2023-01-15T06:06:29;1.27;;;0.20;;
703;SDS011;335;48.694;9.120;2023-01-15T06:08:55;0.60;;;0.20;;
703;SDS011;335;48.694;9.120;2023-01-15T06:11:20;0.30;;;0.10;;
703;SDS011;335;48.694;9.120;2023-01-15T06:13:46;0.47;;;0.10;;
703;SDS011;335;48.694;9.120;2023-01-15T06:16:11;0.30;;;0.20;;
703;SDS011;335;48.694;9.120;2023-01-15T06:18:38;0.30;;;0.20;;
703;SDS011;335;48.694;9.120;2023-01-15T06:21:04;0.40;;;0.20;;
703;SDS011;335;48.694;9.120;2023-01-15T06:23:30;0.30;;;0.10;;
703;SDS011;335;48.694;9.120;2023-01-15T06:25:59;0.30;;;0.20;;
703;SDS011;335;48.694;9.120;2023-01-15T06:28:25;0.30;;;0.20;;
703;SDS011;335;48.694;9.120;2023-01-15T06:30:51;0.40;;;0.20;;
703;SDS011;335;48.694;9.120;2023-01-15T06:33:16;0.40;;;0.20;;
703;SDS011;335;48.694;9.120;2023-01-15T06:35:41;0.30;;;0.10;;
703;SDS011;335;48.694;9.120;2023-01-15T06:38:07;0.30;;;0.20;;
703;SDS011;335;48.694;9.120;2023-01-15T06:40:32;0.30;;;0.10;;
703;SDS011;335;48.694;9.120;2023-01-15T06:42:58;0.40;;;0.20;;
703;SDS011;335;48.694;9.120;2023-01-15T06:45:42;0.40;;;0.20;;
703;SDS011;335;48.694;9.120;2023-01-15T06:48:26;0.70;;;0.20;;
703;SDS011;335;48.694;9.120;2023-01-15T06:50:52;0.30;;;0.20;;
703;SDS011;335;48.694;9.120;2023-01-15T06:53:18;0.30;;;0.10;;
703;SDS011;335;48.694;9.120;2023-01-15T06:55:43;1.40;;;0.27;;
703;SDS011;335;48.694;9.120;2023-01-15T06:58:09;0.40;;;0.20;;
703;SDS011;335;48.694;9.120;2023-01-15T07:00:34;0.37;;;0.17;;
703;SDS011;335;48.694;9.120;2023-01-15T07:03:00;0.40;;;0.20;;
703;SDS011;335;48.694;9.120;2023-01-15T07:05:26;0.40;;;0.20;;
703;SDS011;335;48.694;9.120;2023-01-15T07:07:51;0.40;;;0.20;;
703;SDS011;335;48.694;9.120;2023-01-15T07:10:17;0.40;;;0.20;;
703;SDS011;335;48.694;9.120;2023-01-15T07:12:42;0.40;;;0.30;;
703;SDS011;335;48.694;9.120;2023-01-15T07:15:07;0.30;;;0.20;;
703;SDS011;335;48.694;9.120;2023-01-15T07:17:33;0.30;;;0.10;;
703;SDS011;335;48.694;9.120;2023-01-15T07:19:59;0.30;;;0.20;;
703;SDS011;335;48.694;9.120;2023-01-15T07:22:24;0.60;;;0.30;;
703;SDS011;335;48.694;9.120;2023-01-15T07:24:50;1.33;;;0.20;;
703;SDS011;335;48.694;9.120;2023-01-15T07:27:15;0.30;;;0.20;;
703;SDS011;335;48.694;9.120;2023-01-15T07:29:41;0.40;;;0.10;;
703;SDS011;335;48.694;9.120;2023-01-15T07:32:06;0.30;;;0.20;;
703;SDS011;335;48.694;9.120;2023-01-15T07:34:31;0.30;;;0.20;;
703;SDS011;335;48.694;9.120;2023-01-15T07:36:56;0.30;;;0.20;;
703;SDS011;335;48.694;9.120;2023-01-15T07:39:22;1.83;;;0.50;;
703;SDS011;335;48.694;9.120;2023-01-15T07:41:47;0.40;;;0.20;;
703;SDS011;335;48.694;9.120;2023-01-15T07:44:31;0.30;;;0.10;;
703;SDS011;335;48.694;9.120;2023-01-15T07:47:18;0.40;;;0.20;;
703;SDS011;335;48.694;9.120;2023-01-15T07:50:04;0.30;;;0.10;;
703;SDS011;335;48.694;9.120;2023-01-15T07:52:30;0.40;;;0.20;;
703;SDS011;335;48.694;9.120;2023-01-15T07:54:55;0.40;;;0.20;;
703;SDS011;335;48.694;9.120;2023-01-15T07:57:21;0.30;;;0.10;;
703;SDS011;335;48.694;9.120;2023-01-15T07:59:47;0.30;;;0.10;;
703;SDS011;335;48.694;9.120;2023-01-15T08:02:13;0.30;;;0.20;;
703;SDS011;335;48.694;9.120;2023-01-15T08:07:56;1.10;;;0.10;;
703;SDS011;335;48.694;9.120;2023-01-15T08:10:22;0.30;;;0.20;;
703;SDS011;335;48.694;9.120;2023-01-15T08:12:49;0.40;;;0.20;;
703;SDS011;335;48.694;9.120;2023-01-15T08:15:36;0.40;;;0.20;;
703;SDS011;335;48.694;9.120;2023-01-15T08:18:02;0.40;;;0.20;;
703;SDS011;335;48.694;9.120;2023-01-15T08:20:29;1.50;;;0.20;;
703;SDS011;335;48.694;9.120;2023-01-15T08:22:54;0.40;;;0.20;;
703;SDS011;335;48.694;9.120;2023-01-15T08:25:20;0.30;;;0.20;;
703;SDS011;335;48.694;9.120;2023-01-15T08:27:48;0.40;;;0.20;;
703;SDS011;335;48.694;9.120;2023-01-15T08:30:18;1.03;;;0.30;;
703;SDS011;335;48.694;9.120;2023-01-15T08:32:46;0.30;;;0.20;;
703;SDS011;335;48.694;9.120;2023-01-15T08:35:11;0.40;;;0.20;;
703;SDS011;335;48.694;9.120;2023-01-15T08:37:37;0.40;;;0.30;;
703;SDS011;335;48.694;9.120;2023-01-15T08:40:03;0.40;;;0.25;;
703;SDS011;335;48.694;9.120;2023-01-15T08:42:29;0.60;;;0.17;;
703;SDS011;335;48.694;9.120;2023-01-15T08:44:54;0.67;;;0.20;;
703;SDS011;335;48.694;9.120;2023-01-15T08:47:20;0.40;;;0.30;;
703;SDS011;335;48.694;9.120;2023-01-15T08:49:45;0.40;;;0.20;;
703;SDS011;335;48.694;9.120;2023-01-15T08:52:12;0.30;;;0.20;;
703;SDS011;335;48.694;9.120;2023-01-15T08:54:38;0.40;;;0.20;;
703;SDS011;335;48.694;9.120;2023-01-15T08:57:03;1.30;;;0.20;;
703;SDS011;335;48.694;9.120;2023-01-15T08:59:28;0.40;;;0.20;;
703;SDS011;335;48.694;9.120;2023-01-15T09:01:54;0.30;;;0.20;;
703;SDS011;335;48.694;9.120;2023-01-15T09:04:19;0.30;;;0.17;;
703;SDS011;335;48.694;9.120;2023-01-15T09:06:46;0.40;;;0.30;;
703;SDS011;335;48.694;9.120;2023-01-15T09:09:12;0.90;;;0.90;;
703;SDS011;335;48.694;9.120;2023-01-15T09:11:37;0.40;;;0.40;;
703;SDS011;335;48.694;9.120;2023-01-15T09:14:07;1.02;;;0.57;;
703;SDS011;335;48.694;9.120;2023-01-15T09:16:33;0.38;;;0.20;;
703;SDS011;335;48.694;9.120;2023-01-15T09:19:02;0.30;;;0.20;;
703;SDS011;335;48.694;9.120;2023-01-15T09:21:28;0.50;;;0.30;;
703;SDS011;335;48.694;9.120;2023-01-15T09:23:54;0.30;;;0.10;;
703;SDS011;335;48.694;9.120;2023-01-15T09:28:58;0.40;;;0.20;;
703;SDS011;335;48.694;9.120;2023-01-15T09:31:24;0.30;;;0.20;;
703;SDS011;335;48.694;9.120;2023-01-15T09:33:50;0.60;;;0.22;;
703;SDS011;335;48.694;9.120;2023-01-15T09:36:16;0.40;;;0.20;;
703;SDS011;335;48.694;9.120;2023-01-15T09:38:44;0.40;;;0.20;;
703;SDS011;335;48.694;9.120;2023-01-15T09:41:13;2.30;;;2.10;;
703;SDS011;335;48.694;9.120;2023-01-15T09:52:02;0.40;;;0.20;;
703;SDS011;335;48.694;9.120;2023-01-15T09:55:04;0.40;;;0.20;;
703;SDS011;335;48.694;9.120;2023-01-15T09:57:36;0.40;;;0.20;;
703;SDS011;335;48.694;9.120;2023-01-15T10:00:03;0.40;;;0.20;;
703;SDS011;335;48.694;9.120;2023-01-15T10:02:44;0.45;;;0.22;;
703;SDS011;335;48.694;9.120;2023-01-15T10:05:25;0.80;;;0.38;;
703;SDS011;335;48.694;9.120;2023-01-15T10:07:57;0.45;;;0.30;;
703;SDS011;335;48.694;9.120;2023-01-15T10:10:27;1.05;;;0.30;;
703;SDS011;335;48.694;9.120;2023-01-15T10:12:59;0.60;;;0.30;;
703;SDS011;335;48.694;9.120;2023-01-15T10:15:34;0.40;;;0.20;;
703;SDS011;335;48.694;9.120;2023-01-15T10:18:02;0.93;;;0.55;;
703;SDS011;335;48.694;9.120;2023-01-15T10:25:54;0.40;;;0.25;;
703;SDS011;335;48.694;9.120;2023-01-15T10:28:27;0.40;;;0.30;;
703;SDS011;335;48.694;9.120;2023-01-15T10:30:54;0.40;;;0.30;;
703;SDS011;335;48.694;9.120;2023-01-15T10:33:29;0.30;;;0.20;;
703;SDS011;335;48.694;9.120;2023-01-15T10:46:55;0.40;;;0.20;;
703;SDS011;335;48.694;9.120;2023-01-15T10:49:25;0.85;;;0.40;;
703;SDS011;335;48.694;9.120;2023-01-15T10:51:55;0.40;;;0.20;;
703;SDS011;335;48.694;9.120;2023-01-15T10:54:30;0.40;;;0.22;;
703;SDS011;335;48.694;9.120;2023-01-15T10:57:00;0.40;;;0.20;;
703;SDS011;335;48.694;9.120;2023-01-15T10:59:43;0.40;;;0.20;;
703;SDS011;335;48.694;9.120;2023-01-15T11:02:58;0.40;;;0.30;;
703;SDS011;335;48.694;9.120;2023-01-15T11:05:18;0.43;;;0.25;;
703;SDS011;335;48.694;9.120;2023-01-15T11:07:49;0.55;;;0.20;;
703;SDS011;335;48.694;9.120;2023-01-15T11:10:17;0.50;;;0.30;;
703;SDS011;335;48.694;9.120;2023-01-15T11:12:53;0.40;;;0.20;;
703;SDS011;335;48.694;9.120;2023-01-15T11:15:39;1.13;;;1.02;;
703;SDS011;335;48.694;9.120;2023-01-15T11:18:27;0.80;;;0.80;;
703;SDS011;335;48.694;9.120;2023-01-15T11:21:15;0.50;;;0.30;;
703;SDS011;335;48.694;9.120;2023-01-15T11:23:42;0.50;;;0.30;;
703;SDS011;335;48.694;9.120;2023-01-15T11:26:08;0.40;;;0.20;;
703;SDS011;335;48.694;9.120;2023-01-15T11:28:37;0.60;;;0.43;;
703;SDS011;335;48.694;9.120;2023-01-15T11:31:05;0.30;;;0.10;;
703;SDS011;335;48.694;9.120;2023-01-15T11:33:31;0.40;;;0.28;;
703;SDS011;335;48.694;9.120;2023-01-15T11:36:01;0.40;;;0.30;;
703;SDS011;335;48.694;9.120;2023-01-15T11:38:29;0.30;;;0.20;;
703;SDS011;335;48.694;9.120;2023-01-15T11:40:57;0.50;;;0.20;;
703;SDS011;335;48.694;9.120;2023-01-15T11:43:25;0.40;;;0.20;;
703;SDS011;335;48.694;9.120;2023-01-15T11:49:14;0.40;;;0.20;;
703;SDS011;335;48.694;9.120;2023-01-15T11:51:59;0.40;;;0.20;;
703;SDS011;335;48.694;9.120;2023-01-15T11:54:26;0.40;;;0.20;;
703;SDS011;335;48.694;9.120;2023-01-15T11:56:54;0.50;;;0.30;;
703;SDS011;335;48.694;9.120;2023-01-15T11:59:20;1.95;;;0.77;;
703;SDS011;335;48.694;9.120;2023-01-15T12:01:52;0.40;;;0.20;;
703;SDS011;335;48.694;9.120;2023-01-15T12:04:29;0.40;;;0.30;;
703;SDS011;335;48.694;9.120;2023-01-15T12:07:00;0.45;;;0.20;;
703;SDS011;335;48.694;9.120;2023-01-15T12:09:50;0.50;;;0.32;;
703;SDS011;335;48.694;9.120;2023-01-15T12:15:32;0.63;;;0.43;;
703;SDS011;335;48.694;9.120;2023-01-15T12:21:05;1.08;;;0.20;;
703;SDS011;335;48.694;9.120;2023-01-15T12:23:52;0.40;;;0.20;;
703;SDS011;335;48.694;9.120;2023-01-15T12:26:43;0.52;;;0.20;;
703;SDS011;335;48.694;9.120;2023-01-15T12:29:19;2.90;;;0.30;;
703;SDS011;335;48.694;9.120;2023-01-15T12:31:48;0.40;;;0.20;;
703;SDS011;335;48.694;9.120;2023-01-15T12:34:21;0.70;;;0.20;;
703;SDS011;335;48.694;9.120;2023-01-15T12:36:53;0.40;;;0.20;;
703;SDS011;335;48.694;9.120;2023-01-15T12:42:06;1.20;;;0.20;;
703;SDS011;335;48.694;9.120;2023-01-15T12:44:57;0.40;;;0.20;;
703;SDS011;335;48.694;9.120;2023-01-15T12:47:30;0.40;;;0.20;;
703;SDS011;335;48.694;9.120;2023-01-15T12:50:02;0.80;;;0.20;;
703;SDS011;335;48.694;9.120;2023-01-15T12:52:32;0.30;;;0.20;;
703;SDS011;335;48.694;9.120;2023-01-15T12:55:13;0.30;;;0.20;;
703;SDS011;335;48.694;9.120;2023-01-15T12:57:50;0.40;;;0.20;;
703;SDS011;335;48.694;9.120;2023-01-15T13:00:35;1.77;;;0.35;;
703;SDS011;335;48.694;9.120;2023-01-15T13:05:50;1.05;;;0.38;;
703;SDS011;335;48.694;9.120;2023-01-15T13:08:37;0.40;;;0.30;;
703;SDS011;335;48.694;9.120;2023-01-15T13:11:09;0.50;;;0.32;;
703;SDS011;335;48.694;9.120;2023-01-15T13:13:37;1.52;;;0.40;;
703;SDS011;335;48.694;9.120;2023-01-15T13:16:26;0.50;;;0.40;;
703;SDS011;335;48.694;9.120;2023-01-15T13:21:50;1.00;;;0.30;;
703;SDS011;335;48.694;9.120;2023-01-15T13:24:36;1.17;;;0.40;;
703;SDS011;335;48.694;9.120;2023-01-15T13:32:26;0.50;;;0.40;;
703;SDS011;335;48.694;9.120;2023-01-15T13:35:43;0.43;;;0.30;;
703;SDS011;335;48.694;9.120;2023-01-15T13:37:49;0.77;;;0.52;;
703;SDS011;335;48.694;9.120;2023-01-15T13:40:19;0.50;;;0.32;;
703;SDS011;335;48.694;9.120;2023-01-15T13:43:08;1.33;;;0.40;;
703;SDS011;335;48.694;9.120;2023-01-15T13:45:48;0.73;;;0.47;;
703;SDS011;335;48.694;9.120;2023-01-15T13:48:18;1.27;;;0.50;;
703;SDS011;335;48.694;9.120;2023-01-15T13:50:54;1.13;;;0.30;;
703;SDS011;335;48.694;9.120;2023-01-15T13:53:33;0.70;;;0.50;;
703;SDS011;335;48.694;9.120;2023-01-15T13:58:31;1.00;;;0.30;;
703;SDS011;335;48.694;9.120;2023-01-15T14:01:03;0.60;;;0.60;;
703;SDS011;335;48.694;9.120;2023-01-15T14:03:34;1.73;;;0.57;;
703;SDS011;335;48.694;9.120;2023-01-15T14:06:03;0.88;;;0.30;;
703;SDS011;335;48.694;9.120;2023-01-15T14:08:40;1.15;;;0.25;;
703;SDS011;335;48.694;9.120;2023-01-15T14:11:29;1.40;;;0.63;;
703;SDS011;335;48.694;9.120;2023-01-15T14:14:11;1.02;;;0.35;;
703;SDS011;335;48.694;9.120;2023-01-15T14:28:21;3.60;;;0.57;;
703;SDS011;335;48.694;9.120;2023-01-15T14:31:03;2.53;;;0.75;;
703;SDS011;335;48.694;9.120;2023-01-15T14:33:43;3.85;;;0.68;;
703;SDS011;335;48.694;9.120;2023-01-15T14:36:27;2.17;;;0.75;;
703;SDS011;335;48.694;9.120;2023-01-15T14:38:57;1.85;;;0.60;;
703;SDS011;335;48.694;9.120;2023-01-15T14:41:28;1.00;;;0.45;;
703;SDS011;335;48.694;9.120;2023-01-15T14:43:55;1.25;;;0.65;;
703;SDS011;335;48.694;9.120;2023-01-15T14:46:27;1.33;;;0.70;;
703;SDS011;335;48.694;9.120;2023-01-15T14:48:54;1.40;;;0.50;;
703;SDS011;335;48.694;9.120;2023-01-15T14:51:30;3.20;;;0.80;;
703;SDS011;335;48.694;9.120;2023-01-15T14:54:01;2.45;;;0.50;;
703;SDS011;335;48.694;9.120;2023-01-15T14:59:01;0.82;;;0.80;;
703;SDS011;335;48.694;9.120;2023-01-15T15:01:33;0.60;;;0.40;;
703;SDS011;335;48.694;9.120;2023-01-15T15:04:08;2.28;;;0.93;;
703;SDS011;335;48.694;9.120;2023-01-15T15:06:38;0.63;;;0.50;;
703;SDS011;335;48.694;9.120;2023-01-15T15:09:09;1.35;;;0.55;;
703;SDS011;335;48.694;9.120;2023-01-15T15:11:42;2.95;;;0.63;;
703;SDS011;335;48.694;9.120;2023-01-15T15:14:29;0.50;;;0.40;;
703;SDS011;335;48.694;9.120;2023-01-15T15:16:56;0.65;;;0.47;;
703;SDS011;335;48.694;9.120;2023-01-15T15:19:25;1.65;;;0.63;;
703;SDS011;335;48.694;9.120;2023-01-15T15:21:53;0.80;;;0.52;;
703;SDS011;335;48.694;9.120;2023-01-15T15:24:22;0.65;;;0.45;;
703;SDS011;335;48.694;9.120;2023-01-15T15:26:50;0.60;;;0.38;;
703;SDS011;335;48.694;9.120;2023-01-15T15:29:17;0.50;;;0.40;;
703;SDS011;335;48.694;9.120;2023-01-15T15:31:47;0.88;;;0.45;;
703;SDS011;335;48.694;9.120;2023-01-15T15:36:53;2.30;;;0.80;;
703;SDS011;335;48.694;9.120;2023-01-15T15:39:34;1.05;;;0.80;;
703;SDS011;335;48.694;9.120;2023-01-15T15:42:09;2.42;;;1.98;;
703;SDS011;335;48.694;9.120;2023-01-15T15:45:05;2.17;;;1.30;;
703;SDS011;335;48.694;9.120;2023-01-15T15:47:54;2.47;;;0.95;;
703;SDS011;335;48.694;9.120;2023-01-15T15:50:58;2.45;;;0.70;;
703;SDS011;335;48.694;9.120;2023-01-15T15:53:24;0.60;;;0.60;;
703;SDS011;335;48.694;9.120;2023-01-15T15:55:49;1.20;;;0.50;;
703;SDS011;335;48.694;9.120;2023-01-15T16:01:00;1.02;;;0.95;;
703;SDS011;335;48.694;9.120;2023-01-15T16:03:27;1.40;;;1.00;;
703;SDS011;335;48.694;9.120;2023-01-15T16:05:57;0.68;;;0.68;;
703;SDS011;335;48.694;9.120;2023-01-15T16:08:23;1.05;;;0.77;;
703;SDS011;335;48.694;9.120;2023-01-15T16:10:50;2.55;;;0.88;;
703;SDS011;335;48.694;9.120;2023-01-15T16:13:21;1.25;;;0.63;;
703;SDS011;335;48.694;9.120;2023-01-15T16:15:49;1.08;;;0.85;;
703;SDS011;335;48.694;9.120;2023-01-15T16:18:27;0.60;;;0.60;;
703;SDS011;335;48.694;9.120;2023-01-15T16:20:55;0.60;;;0.60;;
703;SDS011;335;48.694;9.120;2023-01-15T16:23:22;2.10;;;0.80;;
703;SDS011;335;48.694;9.120;2023-01-15T16:26:22;1.33;;;0.65;;
703;SDS011;335;48.694;9.120;2023-01-15T16:28:45;1.02;;;0.65;;
703;SDS011;335;48.694;9.120;2023-01-15T16:31:14;0.63;;;0.63;;
703;SDS011;335;48.694;9.120;2023-01-15T16:33:41;0.70;;;0.70;;
703;SDS011;335;48.694;9.120;2023-01-15T16:36:06;2.10;;;0.87;;
703;SDS011;335;48.694;9.120;2023-01-15T16:38:33;1.23;;;0.80;;
703;SDS011;335;48.694;9.120;2023-01-15T16:41:00;0.52;;;0.50;;
703;SDS011;335;48.694;9.120;2023-01-15T16:43:26;0.80;;;0.77;;
703;SDS011;335;48.694;9.120;2023-01-15T16:46:03;2.08;;;0.85;;
703;SDS011;335;48.694;9.120;2023-01-15T16:48:36;2.15;;;0.88;;
703;SDS011;335;48.694;9.120;2023-01-15T16:54:00;1.00;;;0.63;;
703;SDS011;335;48.694;9.120;2023-01-15T16:59:01;1.48;;;1.00;;
703;SDS011;335;48.694;9.120;2023-01-15T17:01:40;1.27;;;0.70;;
703;SDS011;335;48.694;9.120;2023-01-15T17:04:23;1.23;;;1.08;;
703;SDS011;335;48.694;9.120;2023-01-15T17:09:55;1.17;;;1.08;;
703;SDS011;335;48.694;9.120;2023-01-15T17:14:50;0.95;;;0.90;;
703;SDS011;335;48.694;9.120;2023-01-15T17:19:47;0.73;;;0.70;;
703;SDS011;335;48.694;9.120;2023-01-15T17:22:14;1.42;;;0.88;;
703;SDS011;335;48.694;9.120;2023-01-15T17:24:48;1.67;;;0.98;;
703;SDS011;335;48.694;9.120;2023-01-15T17:27:14;2.25;;;0.98;;
703;SDS011;335;48.694;9.120;2023-01-15T17:29:40;2.00;;;1.30;;
703;SDS011;335;48.694;9.120;2023-01-15T17:32:07;0.60;;;0.60;;
703;SDS011;335;48.694;9.120;2023-01-15T17:34:56;1.30;;;1.20;;
703;SDS011;335;48.694;9.120;2023-01-15T17:37:22;1.47;;;1.37;;
703;SDS011;335;48.694;9.120;2023-01-15T17:39:47;2.13;;;1.50;;
703;SDS011;335;48.694;9.120;2023-01-15T17:42:12;1.30;;;1.07;;
703;SDS011;335;48.694;9.120;2023-01-15T17:44:39;1.73;;;1.02;;
703;SDS011;335;48.694;9.120;2023-01-15T17:47:04;2.00;;;1.40;;
703;SDS011;335;48.694;9.120;2023-01-15T17:49:30;6.20;;;4.20;;